createdAt,value
2023-07-09T00:00:20.102Z,101788.25
2023-07-09T00:02:46.901Z,101780.88
2023-07-09T00:05:17.720Z,101775.44
2023-07-09T00:07:46.731Z,101781.16
2023-07-09T00:10:21.158Z,101783.56
2023-07-09T00:12:48.478Z,101784.56
2023-07-09T00:15:20.082Z,101789.38
2023-07-09T00:17:46.754Z,101785.56
2023-07-09T00:20:19.590Z,101785.63
2023-07-09T00:22:53.454Z,101785.06
2023-07-09T00:25:21.652Z,101791.91
2023-07-09T00:27:50.945Z,101790.59
2023-07-09T00:30:20.378Z,101795.94
2023-07-09T00:32:47.084Z,101783.44
2023-07-09T00:35:16.388Z,101789.56
2023-07-09T00:37:44.719Z,101789.91
2023-07-09T00:40:15.972Z,101787.00
2023-07-09T00:42:45.911Z,101787.97
2023-07-09T00:45:19.880Z,101785.31
2023-07-09T00:48:04.411Z,101781.78
2023-07-09T00:50:48.311Z,101775.03
2023-07-09T00:53:20.277Z,101779.69
2023-07-09T00:55:51.179Z,101779.97
2023-07-09T00:58:18.722Z,101784.56
2023-07-09T01:00:53.476Z,101780.78
2023-07-09T01:03:24.395Z,101773.59
2023-07-09T01:05:52.886Z,101777.50
2023-07-09T01:08:20.861Z,101773.19
2023-07-09T01:10:47.765Z,101770.41
2023-07-09T01:13:14.636Z,101772.25
2023-07-09T01:15:41.891Z,101775.31
2023-07-09T01:18:09.741Z,101782.06
2023-07-09T01:20:37.161Z,101773.66
2023-07-09T01:23:03.737Z,101785.19
2023-07-09T01:25:30.828Z,101778.63
2023-07-09T01:27:57.611Z,101784.50
2023-07-09T01:30:34.280Z,101785.41
2023-07-09T01:33:03.112Z,101783.94
2023-07-09T01:35:32.453Z,101779.47
2023-07-09T01:37:59.513Z,101779.59
2023-07-09T01:40:31.560Z,101777.81
2023-07-09T01:42:59.661Z,101778.66
2023-07-09T01:45:27.909Z,101779.47
2023-07-09T01:47:56.728Z,101786.84
2023-07-09T01:50:25.181Z,101776.28
2023-07-09T01:52:51.906Z,101785.38
2023-07-09T01:55:18.666Z,101775.38
2023-07-09T01:57:46.633Z,101778.50
2023-07-09T02:00:15.728Z,101779.22
2023-07-09T02:02:49.721Z,101779.47
2023-07-09T02:05:18.978Z,101776.81
2023-07-09T02:07:49.038Z,101772.00
2023-07-09T02:10:17.745Z,101762.91
2023-07-09T02:12:44.965Z,101765.88
2023-07-09T02:15:12.270Z,101761.38
2023-07-09T02:17:38.903Z,101763.16
2023-07-09T02:20:07.945Z,101763.72
2023-07-09T02:22:35.414Z,101754.31
2023-07-09T02:25:02.071Z,101759.50
2023-07-09T02:27:29.440Z,101758.38
2023-07-09T02:29:56.792Z,101756.53
2023-07-09T02:32:26.607Z,101755.84
2023-07-09T02:34:54.140Z,101750.41
2023-07-09T02:37:23.070Z,101757.09
2023-07-09T02:39:50.097Z,101755.00
2023-07-09T02:42:18.568Z,101754.31
2023-07-09T02:44:46.033Z,101752.03
2023-07-09T02:47:13.520Z,101753.88
2023-07-09T02:49:40.464Z,101750.91
2023-07-09T02:52:07.867Z,101748.97
2023-07-09T02:54:34.489Z,101749.22
2023-07-09T02:57:01.080Z,101747.47
2023-07-09T02:59:30.538Z,101755.56
2023-07-09T03:01:57.901Z,101753.97
2023-07-09T03:04:24.595Z,101754.13
2023-07-09T03:06:51.477Z,101753.22
2023-07-09T03:09:18.151Z,101749.47
2023-07-09T03:11:44.795Z,101751.50
2023-07-09T03:14:12.163Z,101756.81
2023-07-09T03:16:38.849Z,101757.81
2023-07-09T03:19:05.675Z,101759.97
2023-07-09T03:21:33.003Z,101758.56
2023-07-09T03:23:59.812Z,101767.03
2023-07-09T03:26:29.525Z,101762.59
2023-07-09T03:28:56.276Z,101766.16
2023-07-09T03:31:23.823Z,101765.41
2023-07-09T03:33:52.200Z,101764.50
2023-07-09T03:36:20.756Z,101766.19
2023-07-09T03:38:48.151Z,101764.38
2023-07-09T03:41:17.465Z,101770.81
2023-07-09T03:43:44.573Z,101767.91
2023-07-09T03:46:11.268Z,101771.63
2023-07-09T03:48:38.243Z,101767.81
2023-07-09T03:51:05.036Z,101768.16
2023-07-09T03:53:31.652Z,101768.53
2023-07-09T03:55:59.407Z,101772.16
2023-07-09T03:58:26.724Z,101761.38
2023-07-09T04:00:56.021Z,101757.97
2023-07-09T04:03:23.374Z,101764.88
2023-07-09T04:05:52.702Z,101764.19
2023-07-09T04:08:19.364Z,101757.75
2023-07-09T04:10:46.046Z,101759.19
2023-07-09T04:13:12.811Z,101761.56
2023-07-09T04:15:39.652Z,101763.31
2023-07-09T04:18:06.507Z,101763.31
2023-07-09T04:20:33.265Z,101759.44
2023-07-09T04:22:59.877Z,101755.97
2023-07-09T04:25:26.474Z,101760.38
2023-07-09T04:27:53.151Z,101761.56
2023-07-09T04:30:20.946Z,101772.28
2023-07-09T04:32:47.575Z,101769.56
2023-07-09T04:35:15.736Z,101776.06
2023-07-09T04:37:43.637Z,101769.75
2023-07-09T04:40:14.163Z,101771.22
2023-07-09T04:42:41.305Z,101772.25
2023-07-09T04:45:10.174Z,101764.97
2023-07-09T04:47:37.058Z,101766.59
2023-07-09T04:50:04.759Z,101768.38
2023-07-09T04:52:32.133Z,101769.56
2023-07-09T04:55:00.230Z,101762.94
2023-07-09T04:57:28.002Z,101770.56
2023-07-09T04:59:54.678Z,101767.63
2023-07-09T05:02:21.298Z,101763.31
2023-07-09T05:04:50.137Z,101766.97
2023-07-09T05:07:16.908Z,101772.28
2023-07-09T05:09:43.571Z,101775.31
2023-07-09T05:12:10.568Z,101772.47
2023-07-09T05:14:37.154Z,101775.72
2023-07-09T05:17:05.427Z,101783.13
2023-07-09T05:19:32.190Z,101775.72
2023-07-09T05:21:58.781Z,101779.78
2023-07-09T05:24:28.145Z,101771.50
2023-07-09T05:26:55.476Z,101781.56
2023-07-09T05:29:22.074Z,101772.03
2023-07-09T05:31:51.773Z,101779.38
2023-07-09T05:34:18.419Z,101784.22
2023-07-09T05:36:46.015Z,101776.06
2023-07-09T05:39:12.732Z,101775.00
2023-07-09T05:41:39.381Z,101773.28
2023-07-09T05:44:05.997Z,101775.94
2023-07-09T05:46:37.356Z,101780.41
2023-07-09T05:49:07.547Z,101782.50
2023-07-09T05:51:34.288Z,101782.97
2023-07-09T05:54:00.886Z,101774.34
2023-07-09T05:56:27.798Z,101782.38
2023-07-09T05:58:54.488Z,101788.00
2023-07-09T06:01:21.520Z,101777.13
2023-07-09T06:03:48.524Z,101776.25
2023-07-09T06:06:15.404Z,101787.13
2023-07-09T06:08:42.076Z,101788.69
2023-07-09T06:11:08.815Z,101792.41
2023-07-09T06:13:35.636Z,101794.31
2023-07-09T06:16:02.961Z,101786.13
2023-07-09T06:18:30.969Z,101785.09
2023-07-09T06:20:59.522Z,101789.66
2023-07-09T06:23:29.612Z,101789.34
2023-07-09T06:25:56.273Z,101800.56
2023-07-09T06:28:25.343Z,101802.28
2023-07-09T06:30:52.378Z,101800.34
2023-07-09T06:33:20.156Z,101799.19
2023-07-09T06:35:56.402Z,101805.47
2023-07-09T06:38:23.309Z,101801.03
2023-07-09T06:40:50.013Z,101810.81
2023-07-09T06:43:16.650Z,101805.41
2023-07-09T06:45:53.461Z,101813.50
2023-07-09T06:48:21.097Z,101815.84
2023-07-09T06:50:48.282Z,101826.34
2023-07-09T06:53:14.916Z,101815.31
2023-07-09T06:55:41.667Z,101829.25
2023-07-09T06:58:08.603Z,101828.66
2023-07-09T07:00:36.852Z,101825.72
2023-07-09T07:03:04.166Z,101819.69
2023-07-09T07:05:31.300Z,101819.56
2023-07-09T07:07:58.063Z,101827.50
2023-07-09T07:10:24.637Z,101823.06
2023-07-09T07:12:51.224Z,101823.69
2023-07-09T07:15:18.433Z,101835.56
2023-07-09T07:17:45.126Z,101831.84
2023-07-09T07:20:13.117Z,101827.25
2023-07-09T07:22:40.279Z,101825.41
2023-07-09T07:25:08.802Z,101829.13
2023-07-09T07:27:35.744Z,101828.13
2023-07-09T07:30:02.434Z,101830.03
2023-07-09T07:32:29.068Z,101833.44
2023-07-09T07:34:56.043Z,101827.88
2023-07-09T07:37:22.718Z,101839.69
2023-07-09T07:39:49.694Z,101836.09
2023-07-09T07:42:16.356Z,101833.31
2023-07-09T07:44:42.940Z,101843.31
2023-07-09T07:47:09.531Z,101839.66
2023-07-09T07:49:36.127Z,101836.88
2023-07-09T07:52:04.764Z,101841.13
2023-07-09T07:54:32.642Z,101852.94
2023-07-09T07:56:59.741Z,101844.69
2023-07-09T07:59:26.568Z,101851.66
2023-07-09T08:01:53.204Z,101851.94
2023-07-09T08:04:23.334Z,101858.28
2023-07-09T08:06:50.013Z,101858.03
2023-07-09T08:09:17.574Z,101854.00
2023-07-09T08:11:44.159Z,101860.22
2023-07-09T08:14:12.027Z,101858.81
2023-07-09T08:16:41.385Z,101859.81
2023-07-09T08:19:07.977Z,101852.69
2023-07-09T08:21:34.567Z,101850.59
2023-07-09T08:24:01.162Z,101850.34
2023-07-09T08:26:28.068Z,101854.38
2023-07-09T08:28:55.326Z,101852.47
2023-07-09T08:31:22.000Z,101857.78
2023-07-09T08:33:48.654Z,101855.06
2023-07-09T08:36:15.312Z,101859.44
2023-07-09T08:38:43.374Z,101853.25
2023-07-09T08:41:39.202Z,101848.47
2023-07-09T08:44:21.888Z,101852.47
2023-07-09T08:47:21.710Z,101849.34
2023-07-09T08:49:52.176Z,101861.44
2023-07-09T08:52:21.729Z,101848.72
2023-07-09T08:54:48.848Z,101852.22
2023-07-09T08:57:22.464Z,101860.97
2023-07-09T08:59:51.593Z,101859.19
2023-07-09T09:02:33.109Z,101860.09
2023-07-09T09:05:01.414Z,101857.06
2023-07-09T09:07:42.519Z,101849.88
2023-07-09T09:10:16.031Z,101862.75
2023-07-09T09:13:12.963Z,101858.84
2023-07-09T09:15:48.192Z,101854.09
2023-07-09T09:18:21.845Z,101851.44
2023-07-09T09:21:17.288Z,101848.91
2023-07-09T09:23:56.087Z,101847.00
2023-07-09T09:26:27.360Z,101850.41
2023-07-09T09:28:54.295Z,101853.09
2023-07-09T09:31:21.081Z,101852.97
2023-07-09T09:33:49.612Z,101850.25
2023-07-09T09:36:22.467Z,101860.88
2023-07-09T09:38:51.696Z,101858.16
2023-07-09T09:41:41.281Z,101861.19
2023-07-09T09:44:19.277Z,101861.34
2023-07-09T09:46:45.914Z,101859.38
2023-07-09T09:49:12.521Z,101860.00
2023-07-09T09:51:41.790Z,101871.91
2023-07-09T09:54:21.476Z,101870.88
2023-07-09T09:56:50.321Z,101878.94
2023-07-09T09:59:33.605Z,101873.75
2023-07-09T10:02:04.848Z,101874.38
2023-07-09T10:04:31.568Z,101877.91
2023-07-09T10:07:07.799Z,101891.19
2023-07-09T10:09:53.649Z,101896.78
2023-07-09T10:12:23.442Z,101900.19
2023-07-09T10:14:59.188Z,101898.41
2023-07-09T10:17:39.085Z,101899.94
2023-07-09T10:20:39.164Z,101900.72
2023-07-09T10:23:49.801Z,101903.38
2023-07-09T10:26:29.767Z,101905.03
2023-07-09T10:29:30.428Z,101890.81
2023-07-09T10:32:10.669Z,101887.03
2023-07-09T10:34:59.006Z,101879.47
2023-07-09T10:37:43.852Z,101881.34
2023-07-09T10:40:13.567Z,101882.75
2023-07-09T10:42:49.610Z,101873.63
2023-07-09T10:45:38.203Z,101864.63
2023-07-09T10:48:14.498Z,101858.25
2023-07-09T10:50:43.276Z,101861.09
2023-07-09T10:53:27.842Z,101855.38
2023-07-09T10:56:12.961Z,101864.53
2023-07-09T10:58:45.352Z,101871.09
2023-07-09T11:01:18.284Z,101865.28
2023-07-09T11:03:52.196Z,101867.28
2023-07-09T11:06:30.527Z,101862.06
2023-07-09T11:09:00.266Z,101858.41
2023-07-09T11:11:31.723Z,101847.66
2023-07-09T11:14:03.289Z,101857.19
2023-07-09T11:16:37.631Z,101852.28
2023-07-09T11:19:07.632Z,101856.09
2023-07-09T11:21:36.084Z,101852.38
2023-07-09T11:24:04.157Z,101844.78
2023-07-09T11:26:35.310Z,101852.16
2023-07-09T11:29:07.741Z,101844.78
2023-07-09T11:31:42.071Z,101848.34
2023-07-09T11:34:13.269Z,101852.00
2023-07-09T11:37:00.176Z,101847.97
2023-07-09T11:39:31.700Z,101857.38
2023-07-09T11:41:58.864Z,101859.00
2023-07-09T11:44:31.995Z,101855.16
2023-07-09T11:47:18.431Z,101864.78
2023-07-09T11:49:56.193Z,101866.06
2023-07-09T11:52:44.993Z,101870.44
2023-07-09T11:55:41.763Z,101857.63
2023-07-09T11:58:11.725Z,101847.97
2023-07-09T12:00:42.902Z,101859.38
2023-07-09T12:03:17.325Z,101861.03
2023-07-09T12:05:51.881Z,101865.53
2023-07-09T12:08:19.384Z,101854.63
2023-07-09T12:10:46.057Z,101855.38
2023-07-09T12:13:13.591Z,101856.25
2023-07-09T12:15:41.424Z,101857.06
2023-07-09T12:18:13.913Z,101855.00
2023-07-09T12:20:42.337Z,101850.50
2023-07-09T12:23:25.454Z,101844.94
2023-07-09T12:25:53.544Z,101843.69
2023-07-09T12:28:21.746Z,101844.66
2023-07-09T12:30:53.045Z,101851.88
2023-07-09T12:33:25.687Z,101852.91
2023-07-09T12:36:06.857Z,101847.09
2023-07-09T12:38:43.784Z,101845.19
2023-07-09T12:41:30.945Z,101847.75
2023-07-09T12:43:57.682Z,101831.84
2023-07-09T12:46:25.297Z,101838.00
2023-07-09T12:48:52.036Z,101828.97
2023-07-09T12:51:28.320Z,101829.56
2023-07-09T12:54:15.544Z,101832.06
2023-07-09T12:56:42.296Z,101830.66
2023-07-09T12:59:27.077Z,101833.16
2023-07-09T13:02:02.172Z,101824.25
2023-07-09T13:04:33.729Z,101812.41
2023-07-09T13:07:01.450Z,101809.59
2023-07-09T13:09:29.601Z,101803.06
2023-07-09T13:11:56.821Z,101809.50
2023-07-09T13:14:26.833Z,101809.03
2023-07-09T13:16:54.044Z,101830.06
2023-07-09T13:19:20.719Z,101830.84
2023-07-09T13:21:47.604Z,101829.88
2023-07-09T13:24:34.710Z,101831.44
2023-07-09T13:27:01.889Z,101827.03
2023-07-09T13:29:28.834Z,101829.75
2023-07-09T13:31:56.408Z,101829.75
2023-07-09T13:34:28.393Z,101825.25
2023-07-09T13:36:57.406Z,101831.44
2023-07-09T13:39:26.291Z,101830.28
2023-07-09T13:41:56.565Z,101814.06
2023-07-09T13:44:26.394Z,101806.69
2023-07-09T13:46:53.527Z,101794.00
2023-07-09T13:49:22.305Z,101789.50
2023-07-09T13:51:51.100Z,101778.69
2023-07-09T13:54:27.780Z,101772.84
2023-07-09T13:56:54.577Z,101769.31
2023-07-09T13:59:24.228Z,101764.13
2023-07-09T14:01:53.167Z,101761.31
2023-07-09T14:04:21.022Z,101749.22
2023-07-09T14:06:49.599Z,101739.31
2023-07-09T14:09:17.706Z,101749.22
2023-07-09T14:11:52.655Z,101736.28
2023-07-09T14:14:19.818Z,101728.28
2023-07-09T14:16:48.829Z,101731.81
2023-07-09T14:19:17.502Z,101711.75
2023-07-09T14:21:44.125Z,101704.56
2023-07-09T14:24:24.148Z,101709.69
2023-07-09T14:26:52.117Z,101702.31
2023-07-09T14:29:20.587Z,101701.34
2023-07-09T14:31:47.858Z,101704.06
2023-07-09T14:34:29.662Z,101720.44
2023-07-09T14:36:58.237Z,101736.78
2023-07-09T14:39:30.069Z,101725.88
2023-07-09T14:41:56.986Z,101716.75
2023-07-09T14:44:29.976Z,101730.38
2023-07-09T14:47:00.159Z,101735.91
2023-07-09T14:49:28.032Z,101749.47
2023-07-09T14:51:55.321Z,101748.66
2023-07-09T14:54:30.443Z,101748.75
2023-07-09T14:57:01.496Z,101738.75
2023-07-09T14:59:28.115Z,101756.91
2023-07-09T15:01:55.361Z,101777.03
2023-07-09T15:04:22.010Z,101784.28
2023-07-09T15:06:53.164Z,101777.19
2023-07-09T15:09:24.570Z,101777.19
2023-07-09T15:11:53.946Z,101778.09
2023-07-09T15:14:20.767Z,101790.03
2023-07-09T15:16:48.852Z,101787.88
2023-07-09T15:19:17.161Z,101769.81
2023-07-09T15:21:43.915Z,101760.69
2023-07-09T15:24:23.701Z,101770.88
2023-07-09T15:26:55.617Z,101765.41
2023-07-09T15:29:23.152Z,101771.72
2023-07-09T15:31:49.974Z,101768.94
2023-07-09T15:34:16.690Z,101776.22
2023-07-09T15:36:46.135Z,101788.09
2023-07-09T15:39:14.961Z,101799.16
2023-07-09T15:41:41.765Z,101817.44
2023-07-09T15:44:19.873Z,101832.19
2023-07-09T15:46:57.777Z,101862.00
2023-07-09T15:49:24.461Z,101862.69
2023-07-09T15:51:51.058Z,101854.72
2023-07-09T15:54:22.439Z,101854.56
2023-07-09T15:56:49.661Z,101861.78
2023-07-09T15:59:35.025Z,101881.75
2023-07-09T16:02:02.685Z,101899.25
2023-07-09T16:04:29.680Z,101941.16
2023-07-09T16:06:58.034Z,101963.16
2023-07-09T16:09:25.164Z,101949.50
2023-07-09T16:11:53.351Z,101937.41
2023-07-09T16:14:28.741Z,101928.69
2023-07-09T16:16:57.068Z,101904.03
2023-07-09T16:19:29.762Z,101873.69
2023-07-09T16:22:01.613Z,101862.84
2023-07-09T16:24:33.024Z,101827.81
2023-07-09T16:27:01.731Z,101803.53
2023-07-09T16:29:32.659Z,101780.94
2023-07-09T16:32:00.182Z,101734.53
2023-07-09T16:34:28.607Z,101731.25
2023-07-09T16:36:56.209Z,101706.88
2023-07-09T16:39:22.774Z,101720.00
2023-07-09T16:41:49.398Z,101743.38
2023-07-09T16:44:16.093Z,101744.78
2023-07-09T16:46:42.768Z,101747.22
2023-07-09T16:49:38.149Z,101751.84
2023-07-09T16:52:13.754Z,101747.50
2023-07-09T16:54:40.364Z,101738.22
2023-07-09T16:57:15.646Z,101736.63
2023-07-09T16:59:42.683Z,101739.09
2023-07-09T17:02:25.730Z,101731.94
2023-07-09T17:04:53.577Z,101737.13
2023-07-09T17:07:21.163Z,101748.44
2023-07-09T17:09:47.991Z,101864.31
2023-07-09T17:12:14.878Z,102037.47
2023-07-09T17:14:41.732Z,102041.38
2023-07-09T17:17:14.059Z,102016.13
2023-07-09T17:19:41.734Z,102012.72
2023-07-09T17:22:17.553Z,102019.06
2023-07-09T17:24:44.223Z,102015.13
2023-07-09T17:27:12.048Z,102009.44
2023-07-09T17:29:40.126Z,101984.44
2023-07-09T17:32:07.581Z,101962.03
2023-07-09T17:34:34.296Z,101952.94
2023-07-09T17:37:01.767Z,101920.94
2023-07-09T17:39:28.530Z,101914.59
2023-07-09T17:41:55.246Z,101896.47
2023-07-09T17:44:23.525Z,101896.47
2023-07-09T17:46:52.157Z,101881.13
2023-07-09T17:49:26.599Z,101871.22
2023-07-09T17:51:54.163Z,101859.50
2023-07-09T17:54:25.528Z,101812.41
2023-07-09T17:56:55.672Z,101796.22
2023-07-09T17:59:39.592Z,101816.22
2023-07-09T18:02:13.405Z,101845.22
2023-07-09T18:04:41.000Z,101876.22
2023-07-09T18:07:24.420Z,101874.19
2023-07-09T18:09:51.625Z,101879.78
2023-07-09T18:12:21.267Z,101884.41
2023-07-09T18:14:49.056Z,101907.00
2023-07-09T18:17:24.318Z,101935.06
2023-07-09T18:19:51.680Z,101958.72
2023-07-09T18:22:20.879Z,101966.00
2023-07-09T18:24:48.338Z,101968.88
2023-07-09T18:27:21.747Z,101964.28
2023-07-09T18:29:50.722Z,101970.81
2023-07-09T18:32:20.780Z,101972.72
2023-07-09T18:34:48.454Z,101976.38
2023-07-09T18:37:16.965Z,101974.63
2023-07-09T18:39:44.527Z,101972.88
2023-07-09T18:42:31.477Z,101967.41
2023-07-09T18:44:58.076Z,101965.66
2023-07-09T18:47:24.664Z,101967.53
2023-07-09T18:49:51.316Z,101951.19
2023-07-09T18:52:20.065Z,101937.66
2023-07-09T18:54:55.775Z,101940.31
2023-07-09T18:57:22.404Z,101944.25
2023-07-09T18:59:49.042Z,101943.38
2023-07-09T19:02:21.007Z,101935.28
2023-07-09T19:04:48.441Z,101942.63
2023-07-09T19:07:18.949Z,101940.72
2023-07-09T19:09:45.848Z,101923.56
2023-07-09T19:12:12.848Z,101918.94
2023-07-09T19:14:41.925Z,101917.28
2023-07-09T19:17:17.757Z,101908.19
2023-07-09T19:19:45.420Z,101908.28
2023-07-09T19:22:14.038Z,101895.66
2023-07-09T19:24:42.789Z,101893.88
2023-07-09T19:27:09.426Z,101892.13
2023-07-09T19:29:36.517Z,101897.56
2023-07-09T19:32:25.402Z,101888.31
2023-07-09T19:34:52.049Z,101895.03
2023-07-09T19:37:26.590Z,101893.75
2023-07-09T19:39:53.273Z,101893.31
2023-07-09T19:42:24.983Z,101898.63
2023-07-09T19:44:52.183Z,101886.94
2023-07-09T19:47:21.395Z,101883.25
2023-07-09T19:49:48.782Z,101868.94
2023-07-09T19:52:16.800Z,101878.09
2023-07-09T19:54:46.513Z,101876.31
2023-07-09T19:57:14.266Z,101874.50
2023-07-09T19:59:40.859Z,101879.19
2023-07-09T20:02:30.816Z,101869.16
2023-07-09T20:05:02.259Z,101865.66
2023-07-09T20:07:29.643Z,101865.66
2023-07-09T20:09:57.427Z,101862.94
2023-07-09T20:12:30.351Z,101862.09
2023-07-09T20:14:56.972Z,101870.06
2023-07-09T20:17:23.640Z,101868.31
2023-07-09T20:19:50.261Z,101864.75
2023-07-09T20:22:24.525Z,101869.31
2023-07-09T20:24:51.145Z,101878.41
2023-07-09T20:27:18.923Z,101882.09
2023-07-09T20:29:45.639Z,101895.69
2023-07-09T20:32:17.791Z,101895.75
2023-07-09T20:34:45.691Z,101895.00
2023-07-09T20:37:12.492Z,101895.25
2023-07-09T20:39:39.227Z,101903.25
2023-07-09T20:42:06.985Z,101903.34
2023-07-09T20:44:36.292Z,101895.09
2023-07-09T20:47:03.685Z,101887.88
2023-07-09T20:49:34.855Z,101887.09
2023-07-09T20:52:01.904Z,101881.69
2023-07-09T20:54:28.718Z,101898.06
2023-07-09T20:57:01.027Z,101891.94
2023-07-09T20:59:28.701Z,101893.72
2023-07-09T21:01:55.723Z,101884.47
2023-07-09T21:04:22.760Z,101882.88
2023-07-09T21:06:53.261Z,101893.72
2023-07-09T21:09:23.127Z,101886.50
2023-07-09T21:11:52.549Z,101886.63
2023-07-09T21:14:19.207Z,101888.28
2023-07-09T21:16:47.434Z,101889.34
2023-07-09T21:19:24.198Z,101900.09
2023-07-09T21:21:51.135Z,101908.38
2023-07-09T21:24:35.439Z,101908.25
2023-07-09T21:27:03.999Z,101903.13
2023-07-09T21:29:31.075Z,101900.28
2023-07-09T21:32:10.934Z,101904.84
2023-07-09T21:34:37.640Z,101897.75
2023-07-09T21:37:23.485Z,101881.91
2023-07-09T21:39:50.529Z,101889.00
2023-07-09T21:42:17.120Z,101898.75
2023-07-09T21:44:43.839Z,101910.53
2023-07-09T21:47:19.908Z,101921.50
2023-07-09T21:49:46.944Z,101918.09
2023-07-09T21:52:21.396Z,101928.97
2023-07-09T21:57:19.760Z,101925.06
2023-07-09T21:59:46.898Z,101928.81
2023-07-09T22:02:20.092Z,101919.88
2023-07-09T22:04:50.624Z,101918.44
2023-07-09T22:07:23.755Z,101927.19
2023-07-09T22:09:54.208Z,101928.13
2023-07-09T22:12:21.597Z,101931.09
2023-07-09T22:14:49.481Z,101936.41
2023-07-09T22:17:17.837Z,101940.78
2023-07-09T22:19:45.911Z,101960.16
2023-07-09T22:22:13.185Z,101968.28
2023-07-09T22:24:41.437Z,101960.97
2023-07-09T22:27:10.905Z,101947.69
2023-07-09T22:29:39.011Z,101955.84
2023-07-09T22:32:06.704Z,101954.97
2023-07-09T22:34:33.324Z,101957.56
2023-07-09T22:36:59.897Z,101952.34
2023-07-09T22:39:26.483Z,101951.34
2023-07-09T22:41:53.085Z,101946.06
2023-07-09T22:44:19.679Z,101941.47
2023-07-09T22:46:46.362Z,101929.50
2023-07-09T22:49:15.618Z,101923.47
2023-07-09T22:51:42.563Z,101913.53
2023-07-09T22:54:13.400Z,101908.00
2023-07-09T22:56:40.054Z,101913.53
2023-07-09T22:59:06.720Z,101918.09
2023-07-09T23:01:35.910Z,101922.78
2023-07-09T23:04:02.708Z,101913.91
2023-07-09T23:06:33.703Z,101925.25
2023-07-09T23:09:00.294Z,101921.91
2023-07-09T23:11:28.598Z,101915.63
2023-07-09T23:13:56.181Z,101917.25
2023-07-09T23:16:25.893Z,101926.19
2023-07-09T23:18:53.964Z,101933.63
2023-07-09T23:21:24.374Z,101938.41
2023-07-09T23:24:00.434Z,101942.03
2023-07-09T23:26:28.173Z,101943.50
2023-07-09T23:28:54.839Z,101935.19
2023-07-09T23:31:30.384Z,101936.97
2023-07-09T23:33:58.154Z,101943.56
2023-07-09T23:36:25.608Z,101937.06
2023-07-09T23:38:52.596Z,101933.63
2023-07-09T23:41:30.132Z,101923.84
2023-07-09T23:43:58.930Z,101910.25
2023-07-09T23:46:37.294Z,101912.13
2023-07-09T23:49:11.054Z,101912.22
2023-07-09T23:51:38.284Z,101916.72
2023-07-09T23:54:08.380Z,101908.25
2023-07-09T23:56:35.165Z,101915.63
2023-07-09T23:59:03.284Z,101910.03
